Time;durP1;ratioP1;P1;durP2;ratioP2;P2;SDS_P1;SDS_P2;PMS_P1;PMS_P2;Temp;Humidity;BMP_temperature;BMP_pressure;BME280_temperature;BME280_humidity;BME280_pressure;Samples;Min_cycle;Max_cycle;Signal;HPM_P1;HPM_P2
2023/01/10 00:01:06;;;;;;;10.20;6.03;;;;;;;15.29;55.41;98568.59;4480165;32;33132;-77
2023/01/10 00:03:34;;;;;;;9.55;5.05;;;;;;;15.17;55.65;98571.16;4479016;32;34558;-78
2023/01/10 00:06:02;;;;;;;9.35;5.35;;;;;;;15.23;55.42;98571.19;4485371;32;34116;-78
2023/01/10 00:08:29;;;;;;;8.73;5.15;;;;;;;15.04;55.97;98568.44;4483028;32;34247;-76
2023/01/10 00:10:57;;;;;;;8.52;5.43;;;;;;;15.07;55.77;98571.06;4477165;32;33408;-77
2023/01/10 00:13:24;;;;;;;9.90;5.65;;;;;;;14.98;55.91;98571.00;4477489;32;33784;-76
2023/01/10 00:15:53;;;;;;;8.88;5.32;;;;;;;15.46;54.48;98564.34;4481293;32;34182;-77
2023/01/10 00:18:21;;;;;;;9.15;5.78;;;;;;;16.69;50.95;98556.03;4472620;32;33338;-76
2023/01/10 00:20:49;;;;;;;8.82;5.62;;;;;;;17.12;49.67;98557.78;4481293;32;33209;-78
2023/01/10 00:23:17;;;;;;;7.50;4.57;;;;;;;17.67;47.77;98555.00;4476639;32;34251;-76
2023/01/10 00:25:45;;;;;;;8.48;4.82;;;;;;;17.69;47.57;98553.22;4479736;32;34199;-78
2023/01/10 00:28:18;;;;;;;8.32;4.97;;;;;;;17.58;47.83;98547.19;4483340;32;34280;-76
2023/01/10 00:30:58;;;;;;;7.30;4.28;;;;;;;17.51;47.97;98548.09;4484627;32;33410;-78
2023/01/10 00:33:27;;;;;;;7.28;4.32;;;;;;;17.10;48.85;98544.69;4481968;32;33334;-76
2023/01/10 00:35:55;;;;;;;6.53;4.32;;;;;;;16.95;49.44;98542.09;4482403;32;34410;-76
2023/01/10 00:38:22;;;;;;;6.62;3.95;;;;;;;16.11;51.55;98536.78;4482818;32;33600;-76
2023/01/10 00:40:50;;;;;;;7.35;4.87;;;;;;;15.47;53.76;98545.22;4482487;32;34038;-76
2023/01/10 00:46:04;;;;;;;7.32;4.00;;;;;;;15.36;54.47;98543.44;4484590;32;33924;-76
2023/01/10 00:48:32;;;;;;;7.37;4.22;;;;;;;15.59;53.69;98546.13;4480899;32;32443;-76
2023/01/10 00:50:59;;;;;;;5.40;3.65;;;;;;;15.62;53.50;98544.41;4479368;32;33400;-78
2023/01/10 00:53:26;;;;;;;7.45;4.00;;;;;;;14.60;56.52;98547.25;4483606;32;34596;-76
2023/01/10 00:55:54;;;;;;;5.57;3.67;;;;;;;14.88;55.43;98540.53;4481291;31;34099;-75
2023/01/10 00:58:22;;;;;;;6.35;4.12;;;;;;;14.96;55.29;98541.44;4472792;32;33497;-77
2023/01/10 01:00:50;;;;;;;6.82;4.00;;;;;;;14.82;55.72;98548.31;4484792;32;33444;-77
2023/01/10 01:03:20;;;;;;;5.00;3.60;;;;;;;14.81;55.75;98544.78;4462427;32;34531;-77
2023/01/10 01:05:48;;;;;;;5.28;3.45;;;;;;;14.34;57.24;98540.91;4474236;32;34091;-78
2023/01/10 01:08:16;;;;;;;5.30;2.97;;;;;;;13.93;58.53;98538.75;4479022;32;34470;-76
2023/01/10 01:10:44;;;;;;;6.45;3.85;;;;;;;13.21;60.98;98544.75;4481260;32;33417;-76
2023/01/10 01:13:18;;;;;;;7.40;3.92;;;;;;;13.01;61.86;98542.72;4480458;32;33999;-77
2023/01/10 01:15:46;;;;;;;5.35;3.05;;;;;;;12.81;63.17;98538.97;4479303;32;34725;-76
2023/01/10 01:18:16;;;;;;;6.10;3.45;;;;;;;12.50;63.57;98554.94;4480235;32;33898;-76
2023/01/10 01:20:46;;;;;;;5.65;3.33;;;;;;;11.77;67.27;98552.69;4484483;32;32704;-76
2023/01/10 01:23:14;;;;;;;4.87;2.60;;;;;;;12.23;65.22;98544.94;4480340;32;32120;-76
2023/01/10 01:25:42;;;;;;;5.03;2.83;;;;;;;11.00;69.57;98542.41;4483682;32;33825;-76
2023/01/10 01:28:12;;;;;;;4.47;2.75;;;;;;;11.73;67.00;98547.41;4484788;32;34555;-76
2023/01/10 01:30:40;;;;;;;6.47;3.00;;;;;;;11.27;68.57;98552.50;4476681;32;33736;-77
2023/01/10 01:33:07;;;;;;;4.60;2.47;;;;;;;11.03;69.23;98547.66;4476546;32;32575;-76
2023/01/10 01:35:35;;;;;;;4.37;2.42;;;;;;;11.61;68.08;98548.91;4484292;32;33690;-76
2023/01/10 01:38:03;;;;;;;6.18;2.95;;;;;;;11.20;68.79;98548.91;4479192;32;34304;-77
2023/01/10 01:40:30;;;;;;;4.85;2.62;;;;;;;12.01;66.90;98559.22;4484471;32;33054;-77
2023/01/10 01:42:57;;;;;;;4.65;2.58;;;;;;;11.94;66.46;98547.88;4480742;32;34501;-76
2023/01/10 01:45:28;;;;;;;4.45;2.47;;;;;;;11.77;67.13;98555.28;4481046;32;33438;-77
2023/01/10 01:47:57;;;;;;;5.03;2.10;;;;;;;12.05;66.24;98550.66;4475780;32;33793;-77
2023/01/10 01:50:58;;;;;;;5.18;2.50;;;;;;;12.50;64.65;98544.53;4475307;32;33274;-76
2023/01/10 01:53:51;;;;;;;3.25;1.83;;;;;;;12.43;64.42;98542.69;4446264;32;33999;-76
2023/01/10 01:56:41;;;;;;;3.25;1.75;;;;;;;12.49;64.12;98552.31;4478729;32;34592;-76
2023/01/10 01:59:39;;;;;;;4.90;1.95;;;;;;;11.69;66.45;98556.84;4481646;32;33873;-75
2023/01/10 02:02:12;;;;;;;2.75;1.40;;;;;;;12.02;65.45;98557.53;4483852;32;33311;-77
2023/01/10 02:04:49;;;;;;;2.87;1.20;;;;;;;11.25;67.57;98563.69;4466111;32;34688;-76
2023/01/10 02:07:17;;;;;;;2.70;1.65;;;;;;;10.28;72.06;98572.56;4473939;32;33799;-77
2023/01/10 02:09:48;;;;;;;2.42;1.25;;;;;;;11.51;67.31;98588.47;4476979;32;33806;-76
2023/01/10 02:12:15;;;;;;;2.35;1.15;;;;;;;10.97;68.61;98568.22;4476507;32;34093;-77
2023/01/10 02:14:44;;;;;;;3.17;1.00;;;;;;;10.87;69.51;98568.87;4483196;32;33810;-76
2023/01/10 02:17:11;;;;;;;2.45;1.25;;;;;;;11.56;66.54;98576.47;4480222;32;33828;-75
2023/01/10 02:20:04;;;;;;;2.30;1.05;;;;;;;11.70;65.87;98573.28;4483992;32;33547;-76
2023/01/10 02:22:55;;;;;;;1.95;0.90;;;;;;;11.60;66.69;98578.28;4478367;32;33492;-78
2023/01/10 02:25:46;;;;;;;1.60;0.88;;;;;;;11.65;65.80;98577.50;4473777;32;33780;-76
2023/01/10 02:28:34;;;;;;;2.20;1.00;;;;;;;10.66;68.70;98567.50;4480128;32;34762;-75
2023/01/10 02:31:23;;;;;;;2.40;1.08;;;;;;;10.65;69.36;98570.94;4473876;32;34258;-77
2023/01/10 02:34:03;;;;;;;2.55;1.02;;;;;;;10.32;70.61;98571.84;4480021;32;33913;-75
2023/01/10 02:36:39;;;;;;;3.05;0.77;;;;;;;10.09;72.06;98567.75;4481118;32;33705;-76
2023/01/10 02:39:18;;;;;;;2.45;0.82;;;;;;;10.23;71.05;98569.84;4477806;32;34600;-75
2023/01/10 02:41:59;;;;;;;1.37;0.65;;;;;;;9.29;74.75;98571.53;4482872;32;33805;-75
2023/01/10 02:44:44;;;;;;;1.37;0.55;;;;;;;10.28;70.75;98574.28;4479754;32;33156;-77
2023/01/10 02:47:12;;;;;;;1.55;0.60;;;;;;;10.19;70.63;98577.50;4472210;32;33359;-76
2023/01/10 02:49:43;;;;;;;1.37;0.62;;;;;;;9.92;71.72;98578.50;4482298;32;33921;-74
2023/01/10 02:52:14;;;;;;;1.50;0.68;;;;;;;9.78;72.90;98567.78;4483867;32;34294;-75
2023/01/10 02:54:42;;;;;;;2.08;0.70;;;;;;;9.81;72.66;98561.81;4480414;32;33320;-76
2023/01/10 02:57:47;;;;;;;1.48;0.65;;;;;;;9.21;75.06;98573.88;4482469;32;33636;-75
2023/01/10 03:00:46;;;;;;;1.37;0.70;;;;;;;9.00;76.04;98568.03;4481938;31;33736;-75
2023/01/10 03:03:38;;;;;;;1.90;0.85;;;;;;;9.20;75.14;98572.12;4473660;32;32366;-74
2023/01/10 03:06:44;;;;;;;1.95;0.73;;;;;;;9.40;75.37;98583.03;4481066;32;34612;-76
2023/01/10 03:09:17;;;;;;;1.65;0.77;;;;;;;9.49;73.63;98579.88;4412958;32;33609;-76
2023/01/10 03:11:45;;;;;;;1.73;0.80;;;;;;;9.75;73.72;98597.84;4408925;32;33060;-75
2023/01/10 03:14:17;;;;;;;0.55;0.50;;;;;;;9.93;71.71;98593.19;4448533;32;34424;-74
2023/01/10 03:16:50;;;;;;;1.62;1.00;;;;;;;10.68;69.56;98591.75;4482034;32;34129;-76
2023/01/10 03:19:21;;;;;;;1.70;0.73;;;;;;;10.59;69.81;98588.94;4481757;32;33569;-75
2023/01/10 03:21:53;;;;;;;1.37;0.50;;;;;;;10.80;68.68;98586.00;4482818;32;34662;-75
2023/01/10 03:24:34;;;;;;;1.08;0.50;;;;;;;10.42;69.87;98588.47;4476697;32;33932;-77
2023/01/10 03:27:23;;;;;;;1.90;0.70;;;;;;;9.78;71.90;98592.75;4477063;32;34071;-76
2023/01/10 03:30:23;;;;;;;2.15;0.80;;;;;;;9.86;72.45;98591.25;4471430;32;33701;-77
2023/01/10 03:32:52;;;;;;;0.95;0.50;;;;;;;9.92;71.96;98603.50;4457584;32;33704;-74
2023/01/10 03:35:21;;;;;;;0.60;0.50;;;;;;;11.09;67.77;98604.81;4479940;32;33496;-75
2023/01/10 03:37:55;;;;;;;0.82;0.52;;;;;;;11.21;66.53;98599.91;4481890;32;33308;-75
2023/01/10 03:40:27;;;;;;;1.27;0.65;;;;;;;10.36;69.58;98607.31;4472898;32;34004;-75
2023/01/10 03:45:58;;;;;;;1.15;0.57;;;;;;;10.34;69.85;98611.59;4478349;32;33906;-75
2023/01/10 03:48:30;;;;;;;1.12;0.50;;;;;;;10.39;69.88;98610.00;4478713;32;33460;-75
2023/01/10 03:50:59;;;;;;;0.77;0.60;;;;;;;10.12;71.46;98604.94;4461844;31;33180;-76
2023/01/10 03:53:27;;;;;;;1.08;0.40;;;;;;;11.17;66.89;98598.09;4485031;31;33969;-75
2023/01/10 03:55:54;;;;;;;0.68;0.52;;;;;;;11.12;67.04;98607.47;4483594;32;33967;-74
2023/01/10 03:58:22;;;;;;;1.87;0.50;;;;;;;11.50;65.20;98612.66;4478814;32;33870;-76
2023/01/10 04:00:49;;;;;;;1.23;0.40;;;;;;;10.65;67.23;98622.75;4481622;32;33989;-76
2023/01/10 04:03:17;;;;;;;0.98;0.60;;;;;;;9.73;71.93;98626.22;4483677;32;34556;-75
2023/01/10 04:05:45;;;;;;;1.02;0.50;;;;;;;10.84;68.07;98629.25;4483601;32;34237;-76
2023/01/10 04:08:12;;;;;;;0.70;0.57;;;;;;;11.38;66.10;98622.75;4483919;32;33389;-76
2023/01/10 04:10:40;;;;;;;1.12;0.47;;;;;;;10.53;67.92;98627.59;4470889;32;33802;-77
2023/01/10 04:13:08;;;;;;;0.80;0.30;;;;;;;10.03;72.44;98631.41;4484924;32;33686;-76
2023/01/10 04:15:35;;;;;;;0.70;0.40;;;;;;;11.99;63.72;98629.28;4485112;32;33948;-76
2023/01/10 04:18:03;;;;;;;0.43;0.30;;;;;;;11.30;65.98;98632.06;4483785;32;33270;-76
2023/01/10 04:20:30;;;;;;;0.45;0.35;;;;;;;10.82;67.10;98621.44;4484664;32;33389;-76
2023/01/10 04:22:58;;;;;;;0.40;0.30;;;;;;;10.15;69.78;98619.66;4484667;32;34008;-75
2023/01/10 04:25:25;;;;;;;0.95;0.50;;;;;;;9.16;74.08;98610.75;4485079;32;35193;-74
2023/01/10 04:27:53;;;;;;;1.27;0.50;;;;;;;9.19;74.40;98601.38;4485001;32;32842;-75
2023/01/10 04:30:20;;;;;;;1.67;0.70;;;;;;;8.87;75.92;98602.94;4482525;32;33755;-76
2023/01/10 04:32:48;;;;;;;1.10;0.40;;;;;;;8.89;76.01;98601.28;4484998;32;33665;-75
2023/01/10 04:35:16;;;;;;;0.68;0.45;;;;;;;8.90;77.20;98608.19;4482105;32;33609;-76
2023/01/10 04:37:43;;;;;;;1.30;0.43;;;;;;;9.33;75.33;98601.81;4484004;32;33964;-75
2023/01/10 04:40:12;;;;;;;1.40;0.40;;;;;;;9.08;74.60;98618.25;4485008;32;33314;-75
2023/01/10 04:42:39;;;;;;;0.70;0.30;;;;;;;9.82;72.10;98615.28;4485216;32;33926;-74
2023/01/10 04:45:10;;;;;;;1.15;0.52;;;;;;;9.76;72.54;98621.16;4483340;32;33120;-76
2023/01/10 04:47:38;;;;;;;0.50;0.50;;;;;;;9.67;73.31;98630.34;4485049;32;33183;-75
2023/01/10 04:50:06;;;;;;;0.90;0.30;;;;;;;10.00;72.60;98641.66;4483649;32;34201;-76
2023/01/10 04:52:33;;;;;;;1.40;0.60;;;;;;;10.48;69.73;98642.13;4483157;32;34574;-76
2023/01/10 04:55:01;;;;;;;1.10;0.50;;;;;;;10.37;69.89;98650.50;4484138;32;33261;-76
2023/01/10 04:57:28;;;;;;;0.65;0.40;;;;;;;10.94;68.09;98651.09;4476941;32;33762;-76
2023/01/10 04:59:56;;;;;;;1.35;0.52;;;;;;;10.36;70.11;98666.84;4485231;32;33560;-76
2023/01/10 05:02:23;;;;;;;1.02;0.40;;;;;;;9.99;71.52;98660.63;4485023;32;34849;-75
2023/01/10 05:04:51;;;;;;;1.92;0.40;;;;;;;9.39;73.32;98665.72;4485508;32;33614;-76
2023/01/10 05:07:18;;;;;;;1.27;0.50;;;;;;;9.28;74.53;98673.13;4485400;32;33459;-76
2023/01/10 05:09:46;;;;;;;1.65;0.40;;;;;;;9.64;73.48;98675.97;4485224;32;33551;-76
2023/01/10 05:12:14;;;;;;;0.73;0.30;;;;;;;9.80;73.39;98685.06;4485024;32;33964;-74
2023/01/10 05:14:41;;;;;;;1.37;0.45;;;;;;;9.42;73.76;98689.06;4481604;32;33731;-75
2023/01/10 05:17:09;;;;;;;1.87;0.50;;;;;;;9.63;73.89;98696.63;4476250;32;34012;-75
2023/01/10 05:19:36;;;;;;;1.15;0.40;;;;;;;10.07;72.25;98703.97;4482445;32;33667;-75
2023/01/10 05:22:04;;;;;;;1.15;0.35;;;;;;;10.40;70.57;98714.41;4484771;32;33849;-74
2023/01/10 05:24:32;;;;;;;1.10;0.40;;;;;;;10.49;69.99;98714.69;4479325;32;34690;-75
2023/01/10 05:26:59;;;;;;;1.00;0.50;;;;;;;10.31;70.36;98707.25;4472650;32;33892;-77
2023/01/10 05:29:27;;;;;;;2.35;0.50;;;;;;;10.03;71.54;98706.44;4475990;32;33788;-74
2023/01/10 05:31:55;;;;;;;1.62;0.43;;;;;;;10.20;71.50;98711.25;4481586;32;33849;-74
2023/01/10 05:34:22;;;;;;;1.58;0.40;;;;;;;10.73;68.93;98709.28;4484906;32;33670;-75
2023/01/10 05:36:50;;;;;;;1.55;0.37;;;;;;;10.38;69.88;98705.72;4484296;32;33244;-75
2023/01/10 05:39:18;;;;;;;1.77;0.52;;;;;;;9.58;74.01;98704.25;4484435;32;33751;-75
2023/01/10 05:41:45;;;;;;;1.37;0.35;;;;;;;9.12;74.94;98699.31;4485028;32;33871;-76
2023/01/10 05:44:12;;;;;;;1.37;0.32;;;;;;;9.39;73.78;98701.91;4472042;32;34573;-76
2023/01/10 05:46:41;;;;;;;4.53;0.40;;;;;;;8.97;74.88;98712.59;4483200;32;33390;-74
2023/01/10 05:49:09;;;;;;;0.95;0.50;;;;;;;8.98;75.40;98710.06;4484899;32;33701;-76
2023/01/10 05:51:36;;;;;;;1.90;0.30;;;;;;;8.72;76.43;98716.03;4474183;32;33612;-76
2023/01/10 05:54:04;;;;;;;0.43;0.30;;;;;;;8.00;80.54;98717.75;4482052;32;33705;-75
2023/01/10 05:56:31;;;;;;;1.58;0.62;;;;;;;8.96;76.09;98716.00;4472383;32;33522;-76
2023/01/10 05:58:59;;;;;;;1.87;0.40;;;;;;;8.45;77.09;98728.03;4488447;31;33942;-75
2023/01/10 06:01:47;;;;;;;0.55;0.40;;;;;;;8.02;80.08;98726.41;4478614;32;33849;-74
2023/01/10 06:04:14;;;;;;;0.43;0.20;;;;;;;9.10;75.24;98732.84;4484575;32;33905;-76
2023/01/10 06:06:42;;;;;;;0.90;0.30;;;;;;;8.48;78.20;98740.19;4484843;32;33180;-75
2023/01/10 06:09:09;;;;;;;1.67;0.30;;;;;;;9.08;74.85;98752.59;4485080;32;33580;-76
2023/01/10 06:11:37;;;;;;;1.40;0.40;;;;;;;8.13;79.52;98749.16;4479087;32;33909;-76
2023/01/10 06:14:06;;;;;;;0.93;0.30;;;;;;;9.34;74.69;98755.16;4485041;32;33726;-75
2023/01/10 06:16:33;;;;;;;0.20;0.20;;;;;;;8.78;75.61;98755.84;4471947;32;34028;-74
2023/01/10 06:19:01;;;;;;;1.37;0.30;;;;;;;8.10;78.49;98759.37;4479542;31;33646;-74
2023/01/10 06:21:29;;;;;;;2.05;0.65;;;;;;;8.10;79.24;98769.69;4481680;31;33877;-74
2023/01/10 06:23:56;;;;;;;2.03;0.47;;;;;;;8.17;79.52;98777.72;4484272;32;33594;-75
2023/01/10 06:26:24;;;;;;;0.88;0.40;;;;;;;8.34;78.86;98773.16;4484439;32;32839;-75
2023/01/10 06:28:52;;;;;;;0.55;0.20;;;;;;;8.06;79.75;98779.88;4484176;32;33242;-75
2023/01/10 06:31:19;;;;;;;1.30;0.50;;;;;;;8.07;79.75;98793.62;4484751;32;33880;-75
2023/01/10 06:33:50;;;;;;;0.85;0.32;;;;;;;7.93;80.49;98793.12;4483151;32;33742;-75
2023/01/10 06:36:17;;;;;;;0.30;0.20;;;;;;;7.93;80.74;98798.28;4482844;32;33852;-74
2023/01/10 06:38:45;;;;;;;1.60;0.40;;;;;;;8.49;77.53;98795.25;4482976;32;34491;-74
2023/01/10 06:41:13;;;;;;;0.15;0.15;;;;;;;8.16;79.30;98806.03;4481074;32;33635;-75
2023/01/10 06:43:44;;;;;;;1.08;0.47;;;;;;;8.03;78.77;98795.22;4483425;32;33449;-75
2023/01/10 06:46:16;;;;;;;0.37;0.20;;;;;;;8.28;77.87;98781.56;4481504;32;33913;-74
2023/01/10 06:48:44;;;;;;;1.75;0.22;;;;;;;8.16;78.21;98787.97;4482749;32;32350;-74
2023/01/10 06:51:13;;;;;;;1.30;0.62;;;;;;;7.89;78.85;98786.09;4483507;32;34093;-75
2023/01/10 06:53:41;;;;;;;1.75;0.30;;;;;;;7.80;80.37;98798.59;4479840;31;33564;-75
2023/01/10 06:56:09;;;;;;;1.35;0.30;;;;;;;7.15;83.94;98808.88;4479950;32;32942;-75
2023/01/10 06:58:37;;;;;;;0.75;0.20;;;;;;;8.27;78.31;98815.06;4478118;32;33479;-74
2023/01/10 07:01:06;;;;;;;1.30;0.30;;;;;;;8.20;78.43;98823.38;4481472;32;34587;-75
2023/01/10 07:03:34;;;;;;;0.70;0.30;;;;;;;8.32;77.89;98821.25;4483077;32;33890;-74
2023/01/10 07:06:02;;;;;;;1.15;0.50;;;;;;;8.62;75.99;98837.03;4482953;31;34054;-75
2023/01/10 07:08:29;;;;;;;0.52;0.30;;;;;;;8.22;77.00;98837.22;4480888;32;33589;-75
2023/01/10 07:10:58;;;;;;;2.03;0.50;;;;;;;9.33;73.35;98854.16;4482229;32;35301;-75
2023/01/10 07:13:25;;;;;;;2.42;0.62;;;;;;;8.62;75.48;98859.41;4481480;32;33509;-75
2023/01/10 07:16:03;;;;;;;3.35;0.52;;;;;;;10.54;69.32;98857.22;4483360;32;34149;-74
2023/01/10 07:18:35;;;;;;;1.58;0.40;;;;;;;10.92;66.21;98866.09;4476348;32;33315;-74
2023/01/10 07:21:03;;;;;;;0.28;0.25;;;;;;;9.94;69.39;98882.06;4483558;32;33796;-75
2023/01/10 07:23:31;;;;;;;3.17;0.40;;;;;;;8.72;73.51;98877.00;4483442;32;34160;-74
2023/01/10 07:26:03;;;;;;;0.50;0.40;;;;;;;8.48;76.06;98891.53;4481768;32;33877;-74
2023/01/10 07:28:33;;;;;;;0.93;0.30;;;;;;;8.26;76.36;98895.84;4480548;32;33846;-75
2023/01/10 07:31:02;;;;;;;1.33;0.40;;;;;;;8.80;74.80;98891.06;4482482;32;34013;-75
2023/01/10 07:33:31;;;;;;;0.77;0.30;;;;;;;8.61;75.86;98904.97;4483257;32;34310;-75
2023/01/10 07:35:59;;;;;;;1.37;0.50;;;;;;;8.79;73.99;98894.47;4483259;32;33394;-74
2023/01/10 07:38:27;;;;;;;1.60;0.50;;;;;;;8.59;75.68;98905.75;4485318;32;34453;-74
2023/01/10 07:40:55;;;;;;;2.60;0.60;;;;;;;9.41;73.24;98909.59;4483494;32;33930;-74
2023/01/10 07:43:23;;;;;;;1.23;0.40;;;;;;;9.00;74.16;98921.91;4485326;32;34537;-74
2023/01/10 07:45:50;;;;;;;1.60;0.47;;;;;;;9.08;73.86;98914.44;4484277;32;33113;-75
2023/01/10 07:48:18;;;;;;;2.45;1.27;;;;;;;9.22;72.70;98921.88;4478488;32;33838;-74
2023/01/10 07:50:46;;;;;;;0.47;0.30;;;;;;;8.61;75.38;98935.06;4485530;32;33245;-75
2023/01/10 07:53:13;;;;;;;4.65;2.30;;;;;;;8.53;74.77;98942.53;4485402;32;33767;-75
2023/01/10 07:55:42;;;;;;;5.30;2.62;;;;;;;8.55;75.47;98947.75;4484876;31;32922;-74
2023/01/10 07:58:10;;;;;;;5.50;3.58;;;;;;;7.83;77.09;98956.00;4484988;32;33839;-75
2023/01/10 08:00:37;;;;;;;2.80;2.08;;;;;;;8.55;75.32;98955.50;4483799;32;34475;-74
2023/01/10 08:03:05;;;;;;;6.78;4.50;;;;;;;8.04;77.75;98967.22;4476396;32;33550;-74
2023/01/10 08:05:33;;;;;;;4.95;3.22;;;;;;;8.69;74.05;98962.06;4485836;32;33310;-74
2023/01/10 08:08:05;;;;;;;26.40;11.68;;;;;;;8.53;74.22;98965.75;4482335;31;33833;-74
2023/01/10 08:10:34;;;;;;;5.70;2.95;;;;;;;8.72;74.68;98976.81;4472626;32;33709;-74
2023/01/10 08:13:02;;;;;;;14.23;7.00;;;;;;;8.36;76.40;98975.38;4485057;32;34367;-74
2023/01/10 08:15:46;;;;;;;4.65;1.30;;;;;;;8.37;76.43;98987.47;4484186;32;33037;-74
2023/01/10 08:18:14;;;;;;;2.08;0.75;;;;;;;8.39;76.46;98992.69;4484165;32;32359;-74
2023/01/10 08:20:42;;;;;;;10.20;4.90;;;;;;;7.73;79.53;99002.84;4485167;31;33762;-74
2023/01/10 08:23:10;;;;;;;3.17;1.27;;;;;;;8.95;73.48;99009.56;4485445;32;33830;-74
2023/01/10 08:25:38;;;;;;;14.52;5.65;;;;;;;8.75;72.86;99019.13;4485580;32;33898;-74
2023/01/10 08:28:06;;;;;;;4.65;1.70;;;;;;;9.24;72.34;99028.75;4473542;32;33488;-74
2023/01/10 08:30:33;;;;;;;11.40;3.42;;;;;;;9.10;72.34;99045.44;4452782;32;33295;-75
2023/01/10 08:33:02;;;;;;;26.30;9.57;;;;;;;8.11;76.59;99039.69;4485020;32;34319;-75
2023/01/10 08:35:30;;;;;;;11.35;3.62;;;;;;;9.58;70.86;99045.53;4485604;32;34059;-74
2023/01/10 08:37:59;;;;;;;14.05;4.20;;;;;;;9.18;71.37;99040.56;4484124;32;34039;-74
2023/01/10 08:40:29;;;;;;;8.90;2.62;;;;;;;8.71;74.72;99055.97;4484929;31;35669;-75
2023/01/10 08:43:01;;;;;;;9.43;3.10;;;;;;;8.76;73.89;99062.19;4485507;32;33418;-74
2023/01/10 08:45:29;;;;;;;20.75;7.55;;;;;;;8.53;74.30;99056.09;4484921;31;33121;-75
2023/01/10 08:47:57;;;;;;;11.20;4.50;;;;;;;7.88;77.24;99065.38;4485196;32;34673;-74
2023/01/10 08:50:25;;;;;;;22.08;8.75;;;;;;;8.25;75.67;99059.22;4481965;32;33741;-75
2023/01/10 08:52:52;;;;;;;8.38;2.87;;;;;;;8.24;77.18;99070.34;4480467;32;34490;-75
2023/01/10 08:55:20;;;;;;;11.12;4.00;;;;;;;8.46;75.21;99074.75;4479923;31;33810;-75
2023/01/10 08:57:48;;;;;;;4.87;1.45;;;;;;;8.73;73.83;99071.50;4484852;31;34058;-75
2023/01/10 09:00:16;;;;;;;7.12;1.98;;;;;;;8.63;73.38;99078.00;4484225;32;35026;-74
2023/01/10 09:02:43;;;;;;;22.85;7.70;;;;;;;7.82;76.46;99080.56;4481332;32;34603;-74
2023/01/10 09:05:11;;;;;;;27.13;9.15;;;;;;;8.12;77.42;99098.22;4476654;32;33539;-75
2023/01/10 09:07:58;;;;;;;18.73;7.85;;;;;;;8.89;74.14;99096.28;4484907;31;33701;-75
2023/01/10 09:10:26;;;;;;;18.60;6.15;;;;;;;7.94;77.35;99113.75;4484847;31;33697;-75
2023/01/10 09:12:53;;;;;;;5.60;1.73;;;;;;;8.59;75.43;99120.00;4484740;32;33831;-74
2023/01/10 09:15:23;;;;;;;8.32;1.87;;;;;;;7.97;76.28;99117.34;4484638;32;33464;-74
2023/01/10 09:17:59;;;;;;;9.57;4.90;;;;;;;7.61;79.11;99130.38;4485140;32;34608;-75
2023/01/10 09:20:28;;;;;;;9.55;3.55;;;;;;;7.78;77.53;99128.53;4468886;31;33595;-74
2023/01/10 09:22:56;;;;;;;1.42;0.30;;;;;;;7.27;79.43;99121.06;4485116;32;33696;-74
2023/01/10 09:25:24;;;;;;;8.45;3.58;;;;;;;6.78;81.62;99131.63;4473647;31;33456;-75
2023/01/10 09:27:56;;;;;;;7.55;3.65;;;;;;;7.06;80.84;99132.94;4479652;32;34388;-75
2023/01/10 09:30:25;;;;;;;9.25;3.15;;;;;;;6.91;81.34;99135.66;4482586;32;33640;-74
2023/01/10 09:32:53;;;;;;;10.95;5.57;;;;;;;7.19;80.38;99140.44;4474915;32;33630;-74
2023/01/10 09:35:22;;;;;;;3.95;1.62;;;;;;;7.01;80.85;99155.91;4483300;32;33025;-75
2023/01/10 09:37:52;;;;;;;9.38;3.87;;;;;;;6.85;82.61;99164.53;4484768;32;33757;-75
2023/01/10 09:40:44;;;;;;;1.65;0.60;;;;;;;7.38;79.91;99161.91;4480486;32;33996;-76
2023/01/10 09:43:30;;;;;;;1.73;0.50;;;;;;;7.14;81.00;99167.66;4444096;32;33588;-75
2023/01/10 09:46:15;;;;;;;1.35;0.68;;;;;;;6.84;82.26;99188.53;4480473;31;34065;-75
2023/01/10 09:48:55;;;;;;;0.52;0.20;;;;;;;7.02;80.74;99192.81;4481458;32;33775;-74
2023/01/10 09:51:36;;;;;;;1.30;0.55;;;;;;;7.27;78.69;99195.78;4482698;32;34615;-75
2023/01/10 09:54:09;;;;;;;1.15;0.43;;;;;;;7.03;79.55;99194.56;4482412;32;33884;-74
2023/01/10 09:56:39;;;;;;;0.45;0.20;;;;;;;6.65;82.22;99196.16;4481338;32;33457;-75
2023/01/10 09:59:14;;;;;;;1.58;0.50;;;;;;;6.91;80.55;99199.13;4482497;31;33816;-74
2023/01/10 10:01:43;;;;;;;0.40;0.20;;;;;;;7.28;79.32;99217.25;4480339;32;33582;-75
2023/01/10 10:04:31;;;;;;;1.73;0.57;;;;;;;6.70;81.47;99220.41;4483005;32;34050;-75
2023/01/10 10:06:58;;;;;;;2.20;0.47;;;;;;;7.58;77.33;99228.16;4467744;32;31663;-75
2023/01/10 10:09:32;;;;;;;1.98;0.50;;;;;;;6.72;81.83;99223.94;4483927;31;34274;-75
2023/01/10 10:12:18;;;;;;;0.88;0.40;;;;;;;6.93;81.87;99223.25;4483156;32;32520;-74
2023/01/10 10:15:06;;;;;;;0.77;0.30;;;;;;;7.38;78.31;99222.06;4480777;32;33983;-76
2023/01/10 10:17:49;;;;;;;1.35;0.43;;;;;;;7.05;80.42;99221.28;4482584;32;33388;-74
2023/01/10 10:20:25;;;;;;;0.75;0.30;;;;;;;6.89;81.73;99220.56;4481563;32;34394;-75
2023/01/10 10:23:12;;;;;;;1.40;0.40;;;;;;;6.87;80.86;99224.72;4483851;31;33763;-74
2023/01/10 10:26:06;;;;;;;0.40;0.20;;;;;;;6.77;81.96;99225.06;4482676;32;34290;-75
2023/01/10 10:28:46;;;;;;;0.40;0.30;;;;;;;6.85;82.12;99230.59;4468871;32;33500;-75
2023/01/10 10:31:56;;;;;;;1.23;0.40;;;;;;;7.18;81.60;99231.37;4478389;32;33821;-75
2023/01/10 10:34:30;;;;;;;1.40;0.40;;;;;;;6.73;82.99;99225.72;4457226;32;33928;-75
2023/01/10 10:37:01;;;;;;;0.88;0.20;;;;;;;7.03;82.58;99235.78;4473266;32;32329;-75
2023/01/10 10:39:50;;;;;;;0.55;0.20;;;;;;;6.81;82.60;99234.72;4474113;32;33057;-76
2023/01/10 10:42:18;;;;;;;0.80;0.32;;;;;;;6.25;86.21;99245.53;4468874;32;33147;-76
2023/01/10 10:44:57;;;;;;;0.93;0.50;;;;;;;6.70;84.89;99251.28;4484251;32;34450;-76
2023/01/10 10:47:29;;;;;;;0.62;0.32;;;;;;;7.23;81.71;99255.69;4481830;32;33950;-76
2023/01/10 10:50:14;;;;;;;1.67;0.45;;;;;;;7.54;80.77;99266.63;4484485;32;33211;-76
2023/01/10 10:52:43;;;;;;;1.48;0.40;;;;;;;7.42;80.11;99265.22;4472384;32;33948;-77
2023/01/10 10:55:22;;;;;;;0.88;0.35;;;;;;;7.01;83.11;99268.28;4481572;32;33977;-76
2023/01/10 10:57:50;;;;;;;0.90;0.45;;;;;;;6.67;84.02;99269.16;4481895;32;33576;-76
2023/01/10 11:00:27;;;;;;;1.30;0.40;;;;;;;6.92;84.26;99280.72;4482620;31;32936;-76
2023/01/10 11:03:03;;;;;;;2.08;0.30;;;;;;;6.45;85.80;99285.16;4482169;32;33727;-76
2023/01/10 11:05:39;;;;;;;1.37;0.40;;;;;;;7.24;81.72;99290.06;4481856;32;34241;-76
2023/01/10 11:08:11;;;;;;;1.95;0.30;;;;;;;7.35;81.38;99293.16;4481915;32;33737;-76
2023/01/10 11:10:40;;;;;;;0.60;0.35;;;;;;;7.27;80.79;99298.81;4482950;32;34070;-75
2023/01/10 11:13:11;;;;;;;1.15;0.43;;;;;;;7.28;81.60;99298.03;4484031;31;33891;-76
2023/01/10 11:15:45;;;;;;;1.02;0.40;;;;;;;7.92;78.81;99304.53;4479874;32;33903;-75
2023/01/10 11:18:25;;;;;;;5.18;0.98;;;;;;;7.76;78.51;99296.88;4482521;32;33301;-75
2023/01/10 11:20:59;;;;;;;1.67;0.40;;;;;;;7.44;80.44;99291.94;4484163;32;33108;-75
2023/01/10 11:23:33;;;;;;;2.58;0.50;;;;;;;7.81;78.88;99311.75;4483950;32;33610;-76
2023/01/10 11:26:01;;;;;;;1.80;0.68;;;;;;;8.05;77.42;99319.78;4484580;32;34480;-77
2023/01/10 11:28:30;;;;;;;3.40;1.20;;;;;;;7.53;78.45;99330.13;4484171;32;33578;-76
2023/01/10 11:30:59;;;;;;;2.85;0.60;;;;;;;7.52;79.49;99323.22;4483596;32;33288;-76
2023/01/10 11:33:34;;;;;;;1.98;0.88;;;;;;;7.80;78.01;99332.28;4470722;32;33924;-76
2023/01/10 11:36:08;;;;;;;1.77;0.57;;;;;;;7.15;81.40;99339.44;4481361;31;33916;-76
2023/01/10 11:38:35;;;;;;;4.65;1.90;;;;;;;7.93;78.47;99354.41;4485652;32;33603;-76
2023/01/10 11:41:24;;;;;;;2.03;0.80;;;;;;;8.10;77.12;99352.63;4484768;32;34261;-76
2023/01/10 11:43:51;;;;;;;6.00;1.85;;;;;;;7.43;81.07;99345.97;4484103;32;33479;-76
2023/01/10 11:46:21;;;;;;;5.15;1.90;;;;;;;7.56;79.28;99348.34;4483955;32;33651;-77
2023/01/10 11:48:59;;;;;;;8.27;3.15;;;;;;;7.10;81.67;99351.19;4477164;31;33576;-76
2023/01/10 11:51:38;;;;;;;3.55;1.37;;;;;;;7.36;80.61;99354.19;4481394;32;34146;-75
2023/01/10 11:54:09;;;;;;;4.78;1.98;;;;;;;7.35;80.60;99353.31;4484012;32;33600;-76
2023/01/10 11:56:38;;;;;;;7.20;2.80;;;;;;;7.13;82.81;99366.81;4484042;32;32365;-77
2023/01/10 11:59:15;;;;;;;3.28;1.40;;;;;;;7.52;81.28;99361.88;4484048;32;33843;-77
2023/01/10 12:01:59;;;;;;;6.43;2.87;;;;;;;7.80;79.19;99358.06;4482281;31;32233;-76
2023/01/10 12:04:31;;;;;;;7.50;1.90;;;;;;;7.38;80.83;99368.94;4483590;32;34018;-77
2023/01/10 12:07:03;;;;;;;6.40;2.47;;;;;;;7.28;81.68;99372.75;4482988;32;34681;-77